createdAt,value
2023-03-20T00:01:36.436Z,3.23
2023-03-20T00:04:41.962Z,3.49
2023-03-20T00:07:47.800Z,3.48
2023-03-20T00:10:53.117Z,3.44
2023-03-20T00:14:01.049Z,3.49
2023-03-20T00:17:11.732Z,3.41
2023-03-20T00:20:18.205Z,3.44
2023-03-20T00:23:23.296Z,3.69
2023-03-20T00:26:30.075Z,3.42
2023-03-20T00:29:36.781Z,3.76
2023-03-20T00:32:42.204Z,3.68
2023-03-20T00:35:49.626Z,3.71
2023-03-20T00:38:55.153Z,3.66
2023-03-20T00:42:02.118Z,3.69
2023-03-20T00:45:13.840Z,3.61
2023-03-20T00:48:18.839Z,3.56
2023-03-20T00:51:24.019Z,3.74
2023-03-20T00:54:31.000Z,3.60
2023-03-20T00:57:44.378Z,3.60
2023-03-20T01:00:51.677Z,3.71
2023-03-20T01:03:56.823Z,3.74
2023-03-20T01:07:02.205Z,3.60
2023-03-20T01:10:08.669Z,3.76
2023-03-20T01:13:22.032Z,3.65
2023-03-20T01:16:29.466Z,3.56
2023-03-20T01:19:34.549Z,3.80
2023-03-20T01:22:40.817Z,3.57
2023-03-20T01:25:45.990Z,3.59
2023-03-20T01:28:51.341Z,3.66
2023-03-20T01:31:58.960Z,3.81
2023-03-20T01:35:05.891Z,3.76
2023-03-20T01:38:15.539Z,3.86
2023-03-20T01:41:21.623Z,4.00
2023-03-20T01:44:29.869Z,3.96
2023-03-20T01:47:38.250Z,3.78
2023-03-20T01:50:43.370Z,3.89
2023-03-20T01:53:55.191Z,3.96
2023-03-20T01:57:04.656Z,3.88
2023-03-20T02:00:15.704Z,3.95
2023-03-20T02:03:23.475Z,3.98
2023-03-20T02:06:51.994Z,3.97
2023-03-20T02:10:05.381Z,4.06
2023-03-20T02:13:33.735Z,3.96
2023-03-20T02:16:38.967Z,3.89
2023-03-20T02:19:57.538Z,4.02
2023-03-20T02:23:36.056Z,4.18
2023-03-20T02:26:51.682Z,4.16
2023-03-20T02:30:25.864Z,4.02
2023-03-20T02:34:10.029Z,4.28
2023-03-20T02:37:50.298Z,4.17
2023-03-20T02:41:03.294Z,4.06
2023-03-20T02:44:13.223Z,4.19
2023-03-20T02:47:24.120Z,4.10
2023-03-20T02:50:35.017Z,4.09
2023-03-20T02:53:52.985Z,4.16
2023-03-20T02:57:03.078Z,4.01
2023-03-20T03:00:13.866Z,4.03
2023-03-20T03:03:22.208Z,4.00
2023-03-20T03:06:29.824Z,4.08
2023-03-20T03:09:38.408Z,3.87
2023-03-20T03:12:46.070Z,4.04
2023-03-20T03:15:53.665Z,4.05
2023-03-20T03:19:05.216Z,4.21
2023-03-20T03:22:12.309Z,4.07
2023-03-20T03:25:19.258Z,4.15
2023-03-20T03:28:31.540Z,3.93
2023-03-20T03:31:37.368Z,4.06
2023-03-20T03:34:42.861Z,4.13
2023-03-20T03:37:55.000Z,4.12
2023-03-20T03:41:10.711Z,4.12
2023-03-20T03:44:19.462Z,4.16
2023-03-20T03:47:27.131Z,4.14
2023-03-20T03:50:34.700Z,4.32
2023-03-20T03:53:42.729Z,4.32
2023-03-20T03:56:51.166Z,4.23
2023-03-20T03:59:57.358Z,4.36
2023-03-20T04:03:02.522Z,4.36
2023-03-20T04:06:08.470Z,4.33
2023-03-20T04:09:13.638Z,4.36
2023-03-20T04:12:34.356Z,4.31
2023-03-20T04:15:39.940Z,4.32
2023-03-20T04:18:47.293Z,4.46
2023-03-20T04:21:55.324Z,4.56
2023-03-20T04:25:00.871Z,4.51
2023-03-20T04:28:08.300Z,4.44
2023-03-20T04:31:29.846Z,4.48
2023-03-20T04:34:48.053Z,4.54
2023-03-20T04:38:23.255Z,4.55
2023-03-20T04:41:31.090Z,4.62
2023-03-20T04:44:38.189Z,4.60
2023-03-20T04:47:43.413Z,4.68
2023-03-20T04:50:51.103Z,4.75
2023-03-20T04:54:01.344Z,4.75
2023-03-20T04:57:06.624Z,4.83
2023-03-20T05:00:17.059Z,4.72
2023-03-20T05:03:24.172Z,4.78
2023-03-20T05:06:30.320Z,4.91
2023-03-20T05:09:36.485Z,4.91
2023-03-20T05:12:43.501Z,4.93
2023-03-20T05:15:53.270Z,4.77
2023-03-20T05:19:22.051Z,4.77
2023-03-20T05:22:51.640Z,5.00
2023-03-20T05:26:14.054Z,4.90
2023-03-20T05:29:42.209Z,4.90
2023-03-20T05:32:58.475Z,4.99
2023-03-20T05:36:07.549Z,5.04
2023-03-20T05:39:31.644Z,4.89
2023-03-20T05:42:51.257Z,4.98
2023-03-20T05:46:06.701Z,4.97
2023-03-20T05:49:13.162Z,5.03
2023-03-20T05:52:27.455Z,5.07
2023-03-20T05:55:57.044Z,5.10
2023-03-20T05:59:21.793Z,5.06
2023-03-20T06:02:50.113Z,5.17
2023-03-20T06:06:22.709Z,5.16
2023-03-20T06:09:29.919Z,5.17
2023-03-20T06:12:37.411Z,5.22
2023-03-20T06:15:42.959Z,5.18
2023-03-20T06:18:53.350Z,5.42
2023-03-20T06:22:00.229Z,5.44
2023-03-20T06:25:05.841Z,5.42
2023-03-20T06:28:16.986Z,5.44
2023-03-20T06:31:23.366Z,5.49
2023-03-20T06:34:28.626Z,5.60
2023-03-20T06:37:37.025Z,5.50
2023-03-20T06:40:47.965Z,5.55
2023-03-20T06:43:55.999Z,5.65
2023-03-20T06:47:06.449Z,5.55
2023-03-20T06:50:14.340Z,5.55
2023-03-20T06:53:21.142Z,5.72
2023-03-20T06:56:35.286Z,5.83
2023-03-20T06:59:40.736Z,5.82
2023-03-20T07:02:46.033Z,5.92
2023-03-20T07:05:53.677Z,5.93
2023-03-20T07:09:02.689Z,5.93
2023-03-20T07:12:14.571Z,6.00
2023-03-20T07:15:21.401Z,6.07
2023-03-20T07:18:27.940Z,6.18
2023-03-20T07:21:34.022Z,6.25
2023-03-20T07:24:41.729Z,6.18
2023-03-20T07:27:50.913Z,6.29
2023-03-20T07:30:59.667Z,6.32
2023-03-20T07:34:04.953Z,6.34
2023-03-20T07:37:12.263Z,6.34
2023-03-20T07:40:21.108Z,6.46
2023-03-20T07:43:35.336Z,6.58
2023-03-20T07:47:13.636Z,6.68
2023-03-20T07:50:19.385Z,6.74
2023-03-20T07:53:24.528Z,6.57
2023-03-20T07:56:30.966Z,6.77
2023-03-20T07:59:36.333Z,6.64
2023-03-20T08:02:41.524Z,6.83
2023-03-20T08:05:47.603Z,6.93
2023-03-20T08:08:53.508Z,7.02
2023-03-20T08:12:00.122Z,6.95
2023-03-20T08:15:05.939Z,7.05
2023-03-20T08:18:12.552Z,7.25
2023-03-20T08:21:17.883Z,7.28
2023-03-20T08:24:23.401Z,7.22
2023-03-20T08:27:29.940Z,7.29
2023-03-20T08:30:35.091Z,7.39
2023-03-20T08:33:40.229Z,7.44
2023-03-20T08:36:45.862Z,7.38
2023-03-20T08:39:51.065Z,7.43
2023-03-20T08:42:57.680Z,7.35
2023-03-20T08:46:02.774Z,7.44
2023-03-20T08:49:08.449Z,7.49
2023-03-20T08:52:13.526Z,7.52
2023-03-20T08:55:20.003Z,7.49
2023-03-20T08:58:26.554Z,7.59
2023-03-20T09:01:47.902Z,7.51
2023-03-20T09:04:53.735Z,7.68
2023-03-20T09:07:58.492Z,7.59
2023-03-20T09:11:03.937Z,7.53
2023-03-20T09:14:10.755Z,7.59
2023-03-20T09:17:16.146Z,7.53
2023-03-20T09:20:21.439Z,7.56
2023-03-20T09:23:26.874Z,7.46
2023-03-20T09:26:32.055Z,7.33
2023-03-20T09:29:38.802Z,7.39
2023-03-20T09:32:43.937Z,7.48
2023-03-20T09:35:49.086Z,7.53
2023-03-20T09:38:54.256Z,7.42
2023-03-20T09:42:01.865Z,7.32
2023-03-20T09:45:13.015Z,7.49
2023-03-20T09:48:24.655Z,7.68
2023-03-20T09:51:33.791Z,7.64
2023-03-20T09:54:53.736Z,7.55
2023-03-20T09:58:03.693Z,7.57
2023-03-20T10:01:15.444Z,7.68
2023-03-20T10:04:20.700Z,7.69
2023-03-20T10:07:27.359Z,7.74
2023-03-20T10:10:40.833Z,7.91
2023-03-20T10:13:57.040Z,7.89
2023-03-20T10:17:14.583Z,7.91
2023-03-20T10:20:26.683Z,7.86
2023-03-20T10:23:37.575Z,7.93
2023-03-20T10:26:42.909Z,8.03
2023-03-20T10:29:56.326Z,7.96
2023-03-20T10:33:13.189Z,7.93
2023-03-20T10:36:30.870Z,8.01
2023-03-20T10:39:50.353Z,8.00
2023-03-20T10:42:58.925Z,8.04
2023-03-20T10:46:06.280Z,8.28
2023-03-20T10:49:18.625Z,8.08
2023-03-20T10:52:27.581Z,8.01
2023-03-20T10:55:36.272Z,8.18
2023-03-20T10:58:43.258Z,8.19
2023-03-20T11:01:48.391Z,8.21
2023-03-20T11:04:54.874Z,8.51
2023-03-20T11:08:05.158Z,8.47
2023-03-20T11:11:10.814Z,8.37
2023-03-20T11:14:21.106Z,8.67
2023-03-20T11:17:31.126Z,8.56
2023-03-20T11:20:41.592Z,8.78
2023-03-20T11:23:46.879Z,8.78
2023-03-20T11:26:53.716Z,8.73
2023-03-20T11:30:01.482Z,8.82
2023-03-20T11:33:08.819Z,8.71
2023-03-20T11:36:25.891Z,8.73
2023-03-20T11:39:34.156Z,8.73
2023-03-20T11:42:39.367Z,8.49
2023-03-20T11:45:46.643Z,8.61
2023-03-20T11:49:06.025Z,8.82
2023-03-20T11:52:17.034Z,8.97
2023-03-20T11:55:28.375Z,8.77
2023-03-20T11:58:33.797Z,8.70
2023-03-20T12:01:44.778Z,8.70
2023-03-20T12:04:49.844Z,8.82
2023-03-20T12:07:58.338Z,8.65
2023-03-20T12:11:11.010Z,8.83
2023-03-20T12:14:23.897Z,8.84
2023-03-20T12:17:36.450Z,8.80
2023-03-20T12:20:45.253Z,8.91
2023-03-20T12:23:54.680Z,8.99
2023-03-20T12:27:08.074Z,8.86
2023-03-20T12:30:17.084Z,8.94
2023-03-20T12:33:27.333Z,8.90
2023-03-20T12:36:36.064Z,9.27
2023-03-20T12:39:49.853Z,9.29
2023-03-20T12:43:03.013Z,9.24
2023-03-20T12:46:13.892Z,9.34
2023-03-20T12:49:27.925Z,9.22
2023-03-20T12:52:39.421Z,9.40
2023-03-20T12:55:54.804Z,9.42
2023-03-20T12:59:03.261Z,9.24
2023-03-20T13:02:27.705Z,9.13
2023-03-20T13:05:44.326Z,9.07
2023-03-20T13:09:02.630Z,9.10
2023-03-20T13:12:18.105Z,9.07
2023-03-20T13:15:35.657Z,8.95
2023-03-20T13:18:50.527Z,8.91
2023-03-20T13:22:00.067Z,8.84
2023-03-20T13:25:11.907Z,8.83
2023-03-20T13:28:24.058Z,8.88
2023-03-20T13:31:39.111Z,8.84
2023-03-20T13:34:55.872Z,9.01
2023-03-20T13:38:03.528Z,8.96
2023-03-20T13:41:10.125Z,9.13
2023-03-20T13:44:21.223Z,8.93
2023-03-20T13:47:28.555Z,9.05
2023-03-20T13:50:43.944Z,9.02
2023-03-20T13:54:01.326Z,9.03
2023-03-20T13:57:13.925Z,8.95
2023-03-20T14:00:28.458Z,9.14
2023-03-20T14:03:34.926Z,9.03
2023-03-20T14:06:50.844Z,8.93
2023-03-20T14:09:57.461Z,8.89
2023-03-20T14:13:04.646Z,8.64
2023-03-20T14:16:12.852Z,8.57
2023-03-20T14:19:20.976Z,8.55
2023-03-20T14:22:30.355Z,8.28
2023-03-20T14:25:40.416Z,8.18
2023-03-20T14:28:50.633Z,8.12
2023-03-20T14:32:06.195Z,8.18
2023-03-20T14:35:26.091Z,8.13
2023-03-20T14:38:34.277Z,7.97
2023-03-20T14:41:49.552Z,7.68
2023-03-20T14:45:26.433Z,7.66
2023-03-20T14:48:37.731Z,7.72
2023-03-20T14:51:46.007Z,7.59
2023-03-20T14:54:54.828Z,7.45
2023-03-20T14:58:03.726Z,7.25
2023-03-20T15:01:10.547Z,7.24
2023-03-20T15:04:33.094Z,7.15
2023-03-20T15:07:40.079Z,6.77
2023-03-20T15:10:48.525Z,7.02
2023-03-20T15:13:54.589Z,6.90
2023-03-20T15:17:01.233Z,6.50
2023-03-20T15:20:15.314Z,6.66
2023-03-20T15:23:20.742Z,6.61
2023-03-20T15:26:26.425Z,6.60
2023-03-20T15:29:32.606Z,6.60
2023-03-20T15:32:38.374Z,6.28
2023-03-20T15:35:46.013Z,6.25
2023-03-20T15:38:51.820Z,6.26
2023-03-20T15:41:59.049Z,5.90
2023-03-20T15:45:14.741Z,5.91
2023-03-20T15:48:22.064Z,5.85
2023-03-20T15:51:30.235Z,5.69
2023-03-20T15:54:37.506Z,5.77
2023-03-20T15:57:45.035Z,5.71
2023-03-20T16:00:50.867Z,5.56
2023-03-20T16:04:00.183Z,5.40
2023-03-20T16:07:07.110Z,5.06
2023-03-20T16:10:19.812Z,5.30
2023-03-20T16:13:29.730Z,5.11
2023-03-20T16:16:39.123Z,5.03
2023-03-20T16:19:44.932Z,5.06
2023-03-20T16:22:52.900Z,4.92
2023-03-20T16:26:00.221Z,5.08
2023-03-20T16:29:05.421Z,4.69
2023-03-20T16:32:27.009Z,4.90
2023-03-20T16:35:38.450Z,4.90
2023-03-20T16:38:56.427Z,4.70
2023-03-20T16:42:12.708Z,4.76
2023-03-20T16:45:26.453Z,4.59
2023-03-20T16:48:37.660Z,4.64
2023-03-20T16:51:45.566Z,4.77
2023-03-20T16:54:52.024Z,4.55
2023-03-20T16:57:59.647Z,4.25
2023-03-20T17:01:06.290Z,4.28
2023-03-20T17:04:19.423Z,4.20
2023-03-20T17:07:28.131Z,4.12
2023-03-20T17:10:34.888Z,4.24
2023-03-20T17:13:41.331Z,4.21
2023-03-20T17:16:46.483Z,4.26
2023-03-20T17:19:52.040Z,4.17
2023-03-20T17:22:57.392Z,4.26
2023-03-20T17:26:04.180Z,4.32
2023-03-20T17:29:10.862Z,3.99
2023-03-20T17:32:17.828Z,4.13
2023-03-20T17:35:23.162Z,3.96
2023-03-20T17:38:28.472Z,4.20
2023-03-20T17:41:35.012Z,4.27
2023-03-20T17:44:40.114Z,4.20
2023-03-20T17:47:46.461Z,4.41
2023-03-20T17:50:52.174Z,4.08
2023-03-20T17:53:58.073Z,4.08
2023-03-20T17:57:04.807Z,4.10
2023-03-20T18:00:15.118Z,3.85
2023-03-20T18:03:20.620Z,4.00
2023-03-20T18:06:28.260Z,3.73
2023-03-20T18:09:33.348Z,3.96
2023-03-20T18:12:39.896Z,3.94
2023-03-20T18:15:47.630Z,3.89
2023-03-20T18:18:53.147Z,3.84
2023-03-20T18:21:59.031Z,3.93
2023-03-20T18:25:04.765Z,3.83
2023-03-20T18:28:20.776Z,3.99
2023-03-20T18:31:25.987Z,4.09
2023-03-20T18:34:31.833Z,4.23
2023-03-20T18:37:36.997Z,3.97
2023-03-20T18:40:43.843Z,3.95
2023-03-20T18:43:50.862Z,4.11
2023-03-20T18:46:55.957Z,4.03
2023-03-20T18:50:01.186Z,3.82
2023-03-20T18:53:07.259Z,3.63
2023-03-20T18:56:15.783Z,3.68
2023-03-20T18:59:22.757Z,3.48
2023-03-20T19:02:27.872Z,3.55
2023-03-20T19:05:33.177Z,3.63
2023-03-20T19:08:38.930Z,3.68
2023-03-20T19:11:44.418Z,3.60
2023-03-20T19:14:50.890Z,3.78
2023-03-20T19:17:56.552Z,3.74
2023-03-20T19:21:01.855Z,3.44
2023-03-20T19:24:08.250Z,3.57
2023-03-20T19:27:17.767Z,3.62
2023-03-20T19:30:30.115Z,3.45
2023-03-20T19:33:35.459Z,3.50
2023-03-20T19:36:40.765Z,3.43
2023-03-20T19:39:45.933Z,3.40
2023-03-20T19:43:02.009Z,3.38
2023-03-20T19:46:18.649Z,3.46
2023-03-20T19:49:33.099Z,3.35
2023-03-20T19:52:38.627Z,3.32
2023-03-20T19:55:44.834Z,3.26
2023-03-20T19:58:50.089Z,3.36
2023-03-20T20:01:56.980Z,3.48
2023-03-20T20:05:02.182Z,3.43
2023-03-20T20:08:26.147Z,3.57
2023-03-20T20:11:34.373Z,3.38
2023-03-20T20:14:39.417Z,3.44
2023-03-20T20:17:45.998Z,3.44
2023-03-20T20:24:17.192Z,3.41
2023-03-20T20:27:22.314Z,3.43
2023-03-20T20:30:27.471Z,3.31
2023-03-20T20:33:36.847Z,3.51
2023-03-20T20:37:30.539Z,3.40
2023-03-20T20:40:08.394Z,3.46
2023-03-20T20:43:39.017Z,3.26
2023-03-20T20:46:39.606Z,3.37
2023-03-20T20:49:48.166Z,3.28
2023-03-20T20:52:53.594Z,3.15
2023-03-20T20:55:58.686Z,3.07
2023-03-20T20:59:03.926Z,3.06
2023-03-20T21:02:11.943Z,3.17
2023-03-20T21:05:19.730Z,3.19
2023-03-20T21:08:25.434Z,3.06
2023-03-20T21:11:31.112Z,3.02
2023-03-20T21:14:36.283Z,2.93
2023-03-20T21:17:53.882Z,2.89
2023-03-20T21:21:11.741Z,2.80
2023-03-20T21:24:31.574Z,2.92
2023-03-20T21:27:38.148Z,2.87
2023-03-20T21:31:08.897Z,2.82
2023-03-20T21:34:08.360Z,2.83
2023-03-20T21:38:13.110Z,2.77
2023-03-20T21:40:42.031Z,2.96
2023-03-20T21:43:47.765Z,3.04
2023-03-20T21:50:49.496Z,2.83
2023-03-20T21:54:46.089Z,2.78
2023-03-20T22:05:01.406Z,2.61
2023-03-20T22:08:03.376Z,2.69
2023-03-20T22:18:21.669Z,2.83
2023-03-20T22:25:18.471Z,2.86
2023-03-20T22:28:56.374Z,2.58
2023-03-20T22:35:40.745Z,2.50
2023-03-20T22:39:12.661Z,2.16
2023-03-20T22:45:12.868Z,2.57
2023-03-20T22:48:18.200Z,2.71
2023-03-20T22:51:32.607Z,2.67
2023-03-20T22:54:39.458Z,2.73
2023-03-20T22:57:59.811Z,2.81
2023-03-20T23:01:13.645Z,2.62
2023-03-20T23:04:18.886Z,2.64
2023-03-20T23:07:23.996Z,2.61
2023-03-20T23:10:29.176Z,2.74
2023-03-20T23:13:34.292Z,2.27
2023-03-20T23:16:41.807Z,2.35
2023-03-20T23:19:51.994Z,2.48
2023-03-20T23:22:59.387Z,2.44
2023-03-20T23:26:06.257Z,2.43
2023-03-20T23:29:11.768Z,2.49
2023-03-20T23:32:18.295Z,2.58
2023-03-20T23:35:23.642Z,2.58
2023-03-20T23:38:28.820Z,2.57
2023-03-20T23:42:04.613Z,2.59
2023-03-20T23:45:07.147Z,2.32
2023-03-20T23:48:20.477Z,2.09
2023-03-20T23:51:25.918Z,1.91
2023-03-20T23:54:31.079Z,1.94
2023-03-20T23:57:36.136Z,2.13
